Time;durP1;ratioP1;P1;durP2;ratioP2;P2;SDS_P1;SDS_P2;PMS_P1;PMS_P2;Temp;Humidity;BMP_temperature;BMP_pressure;BME280_temperature;BME280_humidity;BME280_pressure;Samples;Min_cycle;Max_cycle;Signal;HPM_P1;HPM_P2
2023/12/20 00:01:38;;;;;;;;;7.00;7.00;;;;;;;;5033769;28;28393;-82
2023/12/20 00:04:07;;;;;;;;;7.33;5.00;;;;;;;;5032889;28;28652;-83
2023/12/20 00:06:32;;;;;;;;;7.33;6.67;;;;;;;;5018140;28;29376;-83
2023/12/20 00:08:57;;;;;;;;;6.67;6.67;;;;;;;;5027678;28;28439;-83
2023/12/20 00:11:23;;;;;;;;;9.00;7.67;;;;;;;;5004022;28;28867;-84
2023/12/20 00:13:48;;;;;;;;;9.33;6.33;;;;;;;;5034874;28;28416;-83
2023/12/20 00:16:14;;;;;;;;;4.67;3.67;;;;;;;;5025922;28;28425;-82
2023/12/20 00:18:39;;;;;;;;;6.00;4.00;;;;;;;;5044952;28;28438;-82
2023/12/20 00:21:05;;;;;;;;;4.00;2.67;;;;;;;;5022561;28;28453;-83
2023/12/20 00:23:31;;;;;;;;;2.00;2.00;;;;;;;;5047122;28;28390;-83
2023/12/20 00:25:56;;;;;;;;;0.67;0.67;;;;;;;;5033259;28;29063;-78
2023/12/20 00:28:22;;;;;;;;;1.67;1.67;;;;;;;;5011606;28;28643;-78
2023/12/20 00:30:48;;;;;;;;;3.00;1.00;;;;;;;;5036084;28;28506;-78
2023/12/20 00:33:13;;;;;;;;;1.33;1.33;;;;;;;;5050210;28;28660;-77
2023/12/20 00:35:38;;;;;;;;;2.00;1.00;;;;;;;;5044960;28;28463;-78
2023/12/20 00:38:05;;;;;;;;;1.67;1.67;;;;;;;;5028811;28;29881;-78
2023/12/20 00:40:30;;;;;;;;;2.00;1.00;;;;;;;;5031638;28;28813;-78
2023/12/20 00:42:55;;;;;;;;;1.00;1.00;;;;;;;;5044083;28;28794;-78
2023/12/20 00:45:20;;;;;;;;;2.67;1.00;;;;;;;;5029307;28;30316;-78
2023/12/20 00:47:46;;;;;;;;;2.00;0.67;;;;;;;;5030982;28;28994;-78
2023/12/20 00:50:11;;;;;;;;;1.33;1.33;;;;;;;;5034972;28;28963;-78
2023/12/20 00:52:36;;;;;;;;;1.00;1.00;;;;;;;;5025243;28;28839;-78
2023/12/20 00:55:01;;;;;;;;;3.00;0.00;;;;;;;;5045864;28;28513;-76
2023/12/20 00:57:27;;;;;;;;;1.00;1.00;;;;;;;;5031976;28;30467;-78
2023/12/20 00:59:52;;;;;;;;;3.00;3.00;;;;;;;;5053406;28;28779;-78
2023/12/20 01:02:17;;;;;;;;;3.00;1.00;;;;;;;;5055430;28;29117;-79
2023/12/20 01:04:43;;;;;;;;;1.33;1.00;;;;;;;;5038494;28;28783;-79
2023/12/20 01:07:08;;;;;;;;;3.00;2.00;;;;;;;;5045285;28;28730;-78
2023/12/20 01:09:33;;;;;;;;;1.33;1.33;;;;;;;;5037633;28;28418;-79
2023/12/20 01:11:58;;;;;;;;;3.00;1.67;;;;;;;;5044215;28;29046;-79
2023/12/20 01:14:24;;;;;;;;;4.67;2.00;;;;;;;;5046556;28;28679;-79
2023/12/20 01:16:49;;;;;;;;;2.00;2.00;;;;;;;;5038479;28;28944;-79
2023/12/20 01:19:15;;;;;;;;;5.33;4.33;;;;;;;;5040935;28;28402;-79
2023/12/20 01:21:40;;;;;;;;;6.00;3.00;;;;;;;;5027411;28;28589;-78
2023/12/20 01:24:05;;;;;;;;;4.00;4.00;;;;;;;;5036467;28;28434;-78
2023/12/20 01:26:30;;;;;;;;;4.00;3.00;;;;;;;;5048707;28;28697;-79
2023/12/20 01:28:56;;;;;;;;;1.00;1.00;;;;;;;;5041471;28;28712;-78
2023/12/20 01:31:21;;;;;;;;;2.00;2.00;;;;;;;;5014553;28;28933;-80
2023/12/20 01:33:46;;;;;;;;;1.00;1.00;;;;;;;;5046075;28;29475;-78
2023/12/20 01:36:11;;;;;;;;;7.00;4.67;;;;;;;;5034517;28;28908;-79
2023/12/20 01:38:37;;;;;;;;;9.33;7.33;;;;;;;;5035460;28;28476;-79
2023/12/20 01:41:02;;;;;;;;;3.00;2.33;;;;;;;;5029846;28;28462;-78
2023/12/20 01:43:30;;;;;;;;;4.67;4.00;;;;;;;;5038463;28;28573;-79
2023/12/20 01:45:58;;;;;;;;;6.00;2.67;;;;;;;;5050588;28;28618;-77
2023/12/20 01:48:24;;;;;;;;;2.00;1.00;;;;;;;;5030005;28;28824;-77
2023/12/20 01:50:50;;;;;;;;;2.67;1.67;;;;;;;;5023306;28;28866;-77
2023/12/20 01:53:16;;;;;;;;;1.33;1.00;;;;;;;;5051651;28;28653;-78
2023/12/20 01:55:42;;;;;;;;;3.00;1.00;;;;;;;;5060323;28;28976;-78
2023/12/20 01:58:10;;;;;;;;;3.00;1.00;;;;;;;;5045862;28;28580;-78
2023/12/20 02:00:37;;;;;;;;;2.33;1.00;;;;;;;;5049592;28;28497;-77
2023/12/20 02:03:02;;;;;;;;;3.33;1.33;;;;;;;;5039096;28;29194;-77
2023/12/20 02:05:29;;;;;;;;;4.00;2.00;;;;;;;;5049943;28;28425;-77
2023/12/20 02:07:54;;;;;;;;;3.00;2.00;;;;;;;;5039764;28;28623;-76
2023/12/20 02:10:20;;;;;;;;;4.00;1.00;;;;;;;;5041483;28;28808;-75
2023/12/20 02:12:45;;;;;;;;;2.00;2.00;;;;;;;;5033211;28;30552;-75
2023/12/20 02:15:10;;;;;;;;;1.00;0.67;;;;;;;;5046264;28;28636;-77
2023/12/20 02:17:36;;;;;;;;;1.33;0.67;;;;;;;;5051362;28;28480;-78
2023/12/20 02:20:01;;;;;;;;;2.67;2.67;;;;;;;;5054789;28;28815;-77
2023/12/20 02:22:27;;;;;;;;;1.33;1.33;;;;;;;;5027538;28;30147;-77
2023/12/20 02:24:52;;;;;;;;;4.33;1.00;;;;;;;;5029429;28;30209;-76
2023/12/20 02:27:19;;;;;;;;;2.00;2.00;;;;;;;;5051497;28;28854;-76
2023/12/20 02:29:46;;;;;;;;;8.00;2.00;;;;;;;;5047651;28;28672;-81
2023/12/20 02:32:11;;;;;;;;;3.00;2.00;;;;;;;;5051217;28;28564;-82
2023/12/20 02:34:37;;;;;;;;;1.00;1.00;;;;;;;;5045342;28;28828;-80
2023/12/20 02:37:02;;;;;;;;;4.00;2.00;;;;;;;;5036580;28;28601;-81
2023/12/20 02:39:27;;;;;;;;;4.33;2.00;;;;;;;;5041961;28;29327;-82
2023/12/20 02:41:53;;;;;;;;;3.33;1.00;;;;;;;;5022079;28;29129;-82
2023/12/20 02:44:18;;;;;;;;;2.00;2.00;;;;;;;;5049748;28;28366;-82
2023/12/20 02:46:43;;;;;;;;;2.33;1.33;;;;;;;;5054811;28;28513;-82
2023/12/20 02:49:08;;;;;;;;;4.00;2.00;;;;;;;;5037758;28;28348;-82
2023/12/20 02:51:34;;;;;;;;;2.00;2.00;;;;;;;;5028126;28;29351;-83
2023/12/20 02:53:59;;;;;;;;;5.00;3.00;;;;;;;;5054470;28;29860;-82
2023/12/20 02:56:24;;;;;;;;;4.67;2.67;;;;;;;;5070931;28;28783;-83
2023/12/20 02:58:49;;;;;;;;;3.00;3.00;;;;;;;;5048803;28;28431;-77
2023/12/20 03:01:15;;;;;;;;;0.67;0.67;;;;;;;;5025321;28;29152;-76
2023/12/20 03:03:40;;;;;;;;;3.00;1.00;;;;;;;;5042453;28;28700;-77
2023/12/20 03:06:05;;;;;;;;;2.00;1.00;;;;;;;;5043514;28;28706;-76
2023/12/20 03:08:31;;;;;;;;;3.67;2.00;;;;;;;;5046274;28;28727;-77
2023/12/20 03:10:56;;;;;;;;;3.33;2.00;;;;;;;;5017190;28;28715;-82
2023/12/20 03:13:21;;;;;;;;;3.33;2.33;;;;;;;;5057332;28;28536;-82
2023/12/20 03:15:47;;;;;;;;;4.67;3.00;;;;;;;;5030528;28;29762;-82
2023/12/20 03:18:12;;;;;;;;;3.67;3.00;;;;;;;;5048072;28;27834;-78
2023/12/20 03:20:38;;;;;;;;;3.00;3.00;;;;;;;;5051026;28;28572;-81
2023/12/20 03:23:04;;;;;;;;;6.33;3.00;;;;;;;;5022704;28;30168;-80
2023/12/20 03:25:29;;;;;;;;;7.00;4.00;;;;;;;;5036181;28;29637;-83
2023/12/20 03:27:54;;;;;;;;;6.67;5.67;;;;;;;;5042866;28;28085;-81
2023/12/20 03:30:20;;;;;;;;;7.00;4.00;;;;;;;;5027381;28;29203;-78
2023/12/20 03:32:46;;;;;;;;;4.33;2.00;;;;;;;;5049488;28;28493;-82
2023/12/20 03:35:12;;;;;;;;;4.67;2.33;;;;;;;;5045744;28;28562;-82
2023/12/20 03:37:37;;;;;;;;;5.33;3.00;;;;;;;;5027669;28;28685;-79
2023/12/20 03:40:03;;;;;;;;;3.00;2.00;;;;;;;;5053157;28;28759;-81
2023/12/20 03:42:28;;;;;;;;;4.67;4.00;;;;;;;;5048077;28;28435;-81
2023/12/20 03:44:55;;;;;;;;;4.00;4.00;;;;;;;;5032087;28;29143;-82
2023/12/20 03:47:20;;;;;;;;;3.67;3.67;;;;;;;;5049098;28;29019;-82
2023/12/20 03:49:45;;;;;;;;;3.00;1.67;;;;;;;;5048586;28;28961;-80
2023/12/20 03:52:10;;;;;;;;;3.33;2.00;;;;;;;;5031045;28;30109;-82
2023/12/20 03:54:36;;;;;;;;;2.33;2.33;;;;;;;;5027524;28;28534;-82
2023/12/20 03:57:01;;;;;;;;;4.67;2.33;;;;;;;;5024943;28;28659;-82
2023/12/20 03:59:26;;;;;;;;;3.33;3.00;;;;;;;;5039586;28;30619;-81
2023/12/20 04:01:52;;;;;;;;;3.00;1.00;;;;;;;;5040211;28;28505;-81
2023/12/20 04:04:17;;;;;;;;;6.67;1.67;;;;;;;;5034081;28;29453;-82
2023/12/20 04:06:43;;;;;;;;;4.00;2.67;;;;;;;;5051288;28;28706;-83
2023/12/20 04:09:12;;;;;;;;;3.00;2.00;;;;;;;;5052504;28;28619;-83
2023/12/20 04:11:37;;;;;;;;;2.00;2.00;;;;;;;;5029752;28;29989;-83
2023/12/20 04:14:02;;;;;;;;;3.67;2.67;;;;;;;;5029992;28;28885;-83
2023/12/20 04:16:28;;;;;;;;;2.00;2.00;;;;;;;;5029330;28;28508;-77
2023/12/20 04:18:53;;;;;;;;;2.00;1.00;;;;;;;;5038555;28;28465;-79
2023/12/20 04:21:18;;;;;;;;;6.00;2.00;;;;;;;;5018093;28;31114;-78
2023/12/20 04:23:43;;;;;;;;;1.67;1.67;;;;;;;;5048399;28;28880;-77
2023/12/20 04:26:09;;;;;;;;;2.33;2.00;;;;;;;;5045796;28;28868;-77
2023/12/20 04:28:34;;;;;;;;;2.33;2.00;;;;;;;;5051305;28;28749;-77
2023/12/20 04:30:59;;;;;;;;;4.00;1.00;;;;;;;;5043967;28;29270;-76
2023/12/20 04:33:24;;;;;;;;;3.67;3.67;;;;;;;;5053281;28;28460;-78
2023/12/20 04:35:50;;;;;;;;;1.33;1.33;;;;;;;;5053452;28;28965;-78
2023/12/20 04:38:15;;;;;;;;;2.67;1.33;;;;;;;;5048692;28;29292;-77
2023/12/20 04:40:41;;;;;;;;;5.00;3.67;;;;;;;;5046709;28;28529;-78
2023/12/20 04:43:06;;;;;;;;;1.00;1.00;;;;;;;;5045054;28;28669;-77
2023/12/20 04:45:31;;;;;;;;;2.00;2.00;;;;;;;;5048730;28;28517;-76
2023/12/20 04:47:56;;;;;;;;;6.00;3.00;;;;;;;;5056637;28;27883;-76
2023/12/20 04:50:22;;;;;;;;;5.00;3.67;;;;;;;;5063680;28;28631;-78
2023/12/20 04:52:47;;;;;;;;;5.67;2.00;;;;;;;;5039817;28;28422;-76
2023/12/20 04:55:12;;;;;;;;;1.00;1.00;;;;;;;;5048953;28;28462;-77
2023/12/20 04:57:38;;;;;;;;;3.33;1.00;;;;;;;;5037551;28;29639;-78
2023/12/20 05:00:03;;;;;;;;;2.67;1.00;;;;;;;;5041128;28;28843;-77
2023/12/20 05:02:28;;;;;;;;;1.00;1.00;;;;;;;;5030084;28;28996;-77
2023/12/20 05:04:53;;;;;;;;;1.00;1.00;;;;;;;;5041394;28;28658;-76
2023/12/20 05:07:19;;;;;;;;;1.00;1.00;;;;;;;;5038631;28;28646;-77
2023/12/20 05:09:44;;;;;;;;;6.00;1.00;;;;;;;;5046595;28;29151;-77
2023/12/20 05:12:09;;;;;;;;;1.00;1.00;;;;;;;;5047361;28;28576;-75
2023/12/20 05:14:34;;;;;;;;;2.00;2.00;;;;;;;;5049125;28;28544;-76
2023/12/20 05:17:00;;;;;;;;;1.00;1.00;;;;;;;;5026879;28;30921;-79
2023/12/20 05:19:26;;;;;;;;;3.00;1.33;;;;;;;;5038877;28;29985;-78
2023/12/20 05:21:51;;;;;;;;;2.33;2.00;;;;;;;;5048305;28;28540;-77
2023/12/20 05:24:16;;;;;;;;;2.00;1.33;;;;;;;;5052801;28;27951;-78
2023/12/20 05:26:42;;;;;;;;;4.00;3.00;;;;;;;;5015405;28;29388;-79
2023/12/20 05:29:07;;;;;;;;;4.33;3.67;;;;;;;;5050056;28;28517;-80
2023/12/20 05:31:32;;;;;;;;;4.33;3.33;;;;;;;;5044905;28;28381;-81
2023/12/20 05:33:58;;;;;;;;;2.67;2.00;;;;;;;;5033554;28;28215;-82
2023/12/20 05:36:23;;;;;;;;;4.00;2.00;;;;;;;;5037056;28;29334;-81
2023/12/20 05:38:49;;;;;;;;;4.33;3.00;;;;;;;;5052102;28;30001;-81
2023/12/20 05:41:14;;;;;;;;;4.33;3.33;;;;;;;;5031934;28;28781;-81
2023/12/20 05:43:39;;;;;;;;;10.00;9.00;;;;;;;;5030696;28;28771;-83
2023/12/20 05:46:05;;;;;;;;;6.00;3.00;;;;;;;;5033753;28;28737;-82
2023/12/20 05:48:30;;;;;;;;;5.00;3.67;;;;;;;;5053176;28;28507;-82
2023/12/20 05:50:55;;;;;;;;;3.67;3.67;;;;;;;;5034465;28;28959;-81
2023/12/20 05:53:20;;;;;;;;;5.67;3.00;;;;;;;;5048520;28;28696;-83
2023/12/20 05:55:46;;;;;;;;;2.00;1.67;;;;;;;;5052686;28;29866;-82
2023/12/20 05:58:11;;;;;;;;;4.67;3.00;;;;;;;;5032290;28;31018;-81
2023/12/20 06:00:37;;;;;;;;;4.00;1.00;;;;;;;;5031849;28;28663;-81
2023/12/20 06:03:02;;;;;;;;;4.33;3.00;;;;;;;;5046614;28;28650;-83
2023/12/20 06:05:27;;;;;;;;;5.00;3.00;;;;;;;;5035328;28;29636;-83
2023/12/20 06:07:52;;;;;;;;;2.33;2.00;;;;;;;;5042723;28;28631;-80
2023/12/20 06:10:18;;;;;;;;;5.00;3.33;;;;;;;;5050822;28;28175;-83
2023/12/20 06:12:43;;;;;;;;;2.67;2.00;;;;;;;;5049933;28;28544;-82
2023/12/20 06:15:09;;;;;;;;;3.33;3.00;;;;;;;;5028332;28;29724;-82
2023/12/20 06:17:34;;;;;;;;;4.00;2.00;;;;;;;;5035804;28;29350;-82
2023/12/20 06:20:00;;;;;;;;;2.67;2.67;;;;;;;;5049956;28;28601;-80
2023/12/20 06:22:25;;;;;;;;;2.00;1.00;;;;;;;;5065503;28;28628;-81
2023/12/20 06:25:03;;;;;;;;;3.67;2.00;;;;;;;;5033677;28;29374;-86
2023/12/20 06:27:28;;;;;;;;;4.67;2.00;;;;;;;;5042051;28;30306;-82
2023/12/20 06:32:49;;;;;;;;;2.67;1.33;;;;;;;;5047325;28;28845;-76
2023/12/20 06:35:14;;;;;;;;;2.33;2.00;;;;;;;;5053750;28;28474;-77
2023/12/20 06:37:42;;;;;;;;;3.67;3.00;;;;;;;;5052669;28;29597;-77
2023/12/20 06:40:08;;;;;;;;;5.00;3.00;;;;;;;;5047583;28;28769;-72
2023/12/20 06:42:33;;;;;;;;;0.00;0.00;;;;;;;;5049104;28;28591;-74
2023/12/20 06:44:58;;;;;;;;;5.33;2.67;;;;;;;;5060109;28;28476;-76
2023/12/20 06:47:23;;;;;;;;;4.00;1.33;;;;;;;;5048095;28;30416;-75
2023/12/20 06:49:49;;;;;;;;;4.33;3.67;;;;;;;;5036251;28;28779;-79
2023/12/20 06:52:14;;;;;;;;;2.00;2.00;;;;;;;;5032936;28;28523;-76
2023/12/20 06:54:39;;;;;;;;;4.00;4.00;;;;;;;;5048680;28;28449;-70
2023/12/20 06:57:05;;;;;;;;;4.33;3.33;;;;;;;;5056117;28;28677;-69
2023/12/20 06:59:30;;;;;;;;;4.00;3.00;;;;;;;;5029486;28;28466;-71
2023/12/20 07:01:55;;;;;;;;;4.67;4.00;;;;;;;;5048837;28;28562;-70
2023/12/20 07:04:21;;;;;;;;;5.33;4.33;;;;;;;;5048493;28;28646;-71
2023/12/20 07:06:47;;;;;;;;;5.00;5.00;;;;;;;;5048573;28;28701;-71
2023/12/20 07:09:13;;;;;;;;;4.00;2.33;;;;;;;;5025406;28;29488;-70
2023/12/20 07:11:38;;;;;;;;;6.67;2.00;;;;;;;;5018885;28;28565;-73
2023/12/20 07:14:04;;;;;;;;;3.00;3.00;;;;;;;;5048403;28;28875;-76
2023/12/20 07:16:29;;;;;;;;;5.00;4.00;;;;;;;;5043510;28;28868;-69
2023/12/20 07:18:56;;;;;;;;;3.67;2.67;;;;;;;;5018156;28;29952;-74
2023/12/20 07:21:21;;;;;;;;;2.00;2.00;;;;;;;;5045931;28;28529;-69
2023/12/20 07:23:46;;;;;;;;;4.00;2.00;;;;;;;;5026570;28;29219;-71
2023/12/20 07:26:12;;;;;;;;;4.67;2.00;;;;;;;;5047201;28;28503;-70
2023/12/20 07:28:37;;;;;;;;;3.00;3.00;;;;;;;;5054276;28;28454;-69
2023/12/20 07:31:02;;;;;;;;;6.00;3.33;;;;;;;;5026833;28;28444;-71
2023/12/20 07:33:30;;;;;;;;;5.67;4.00;;;;;;;;5041311;28;28909;-75
2023/12/20 07:35:55;;;;;;;;;5.67;3.00;;;;;;;;5043445;28;28537;-71
2023/12/20 07:38:20;;;;;;;;;5.00;3.00;;;;;;;;5046986;28;28390;-73
2023/12/20 07:40:48;;;;;;;;;3.67;2.00;;;;;;;;5051385;28;28495;-72
2023/12/20 07:43:14;;;;;;;;;5.00;2.00;;;;;;;;5049004;28;28576;-73
2023/12/20 07:45:39;;;;;;;;;6.33;5.33;;;;;;;;5046726;28;29136;-71
2023/12/20 07:48:05;;;;;;;;;2.33;2.33;;;;;;;;5049754;28;28410;-72
2023/12/20 07:50:30;;;;;;;;;5.33;4.00;;;;;;;;5046410;28;28524;-72
2023/12/20 07:52:56;;;;;;;;;6.00;3.33;;;;;;;;5051378;28;28789;-73
2023/12/20 07:55:22;;;;;;;;;6.33;4.00;;;;;;;;5029984;28;28561;-72
2023/12/20 07:57:47;;;;;;;;;3.67;3.67;;;;;;;;5031624;28;28700;-72
2023/12/20 08:00:16;;;;;;;;;5.33;4.00;;;;;;;;5048498;28;28334;-72
2023/12/20 08:02:41;;;;;;;;;7.33;6.00;;;;;;;;5051726;28;28543;-74
2023/12/20 08:05:09;;;;;;;;;9.33;5.33;;;;;;;;5051488;28;28870;-72
2023/12/20 08:07:34;;;;;;;;;6.00;4.00;;;;;;;;5049263;28;28463;-72
2023/12/20 08:10:00;;;;;;;;;5.33;4.00;;;;;;;;5041888;28;28563;-72
2023/12/20 08:12:27;;;;;;;;;3.00;2.00;;;;;;;;5022952;28;29422;-72
2023/12/20 08:14:53;;;;;;;;;6.33;3.00;;;;;;;;5051254;28;28483;-74
2023/12/20 08:17:19;;;;;;;;;3.00;3.00;;;;;;;;5048538;28;28374;-73
2023/12/20 08:19:47;;;;;;;;;5.33;3.33;;;;;;;;5032820;28;28018;-71
2023/12/20 08:22:12;;;;;;;;;8.67;6.00;;;;;;;;5039309;28;28597;-72
2023/12/20 08:24:38;;;;;;;;;6.00;3.67;;;;;;;;5047972;28;28767;-72
2023/12/20 08:27:03;;;;;;;;;5.33;3.00;;;;;;;;5050647;28;28499;-71
2023/12/20 08:29:29;;;;;;;;;4.67;4.67;;;;;;;;5026460;28;28544;-74
2023/12/20 08:31:55;;;;;;;;;9.67;5.00;;;;;;;;5047096;28;29126;-71
2023/12/20 08:34:20;;;;;;;;;5.67;5.67;;;;;;;;5049658;28;28549;-70
2023/12/20 08:36:45;;;;;;;;;5.00;5.00;;;;;;;;5043371;28;28463;-72
2023/12/20 08:39:11;;;;;;;;;7.33;6.00;;;;;;;;5047674;28;28789;-69
2023/12/20 08:41:37;;;;;;;;;10.67;8.00;;;;;;;;5046194;28;28565;-69
2023/12/20 08:44:02;;;;;;;;;5.00;3.67;;;;;;;;5029833;28;28390;-73
2023/12/20 08:46:27;;;;;;;;;4.00;3.00;;;;;;;;5049937;28;28424;-71
2023/12/20 08:48:53;;;;;;;;;6.00;4.00;;;;;;;;5032293;28;28518;-70
2023/12/20 08:51:18;;;;;;;;;4.00;3.00;;;;;;;;5050589;28;28813;-72
2023/12/20 08:53:45;;;;;;;;;8.00;6.67;;;;;;;;5047036;28;28517;-73
2023/12/20 08:56:10;;;;;;;;;8.00;7.00;;;;;;;;5050355;28;28409;-73
2023/12/20 08:58:35;;;;;;;;;5.67;4.33;;;;;;;;5049624;28;28704;-73
2023/12/20 09:01:01;;;;;;;;;9.00;6.67;;;;;;;;5055974;28;28898;-73
2023/12/20 09:03:26;;;;;;;;;8.00;5.67;;;;;;;;5070893;28;28653;-74
2023/12/20 09:05:51;;;;;;;;;8.33;7.00;;;;;;;;5051234;28;28439;-73
2023/12/20 09:08:17;;;;;;;;;7.00;7.00;;;;;;;;5050596;28;28416;-72
2023/12/20 09:10:42;;;;;;;;;8.00;5.33;;;;;;;;5049391;28;28713;-74
2023/12/20 09:13:07;;;;;;;;;8.33;5.67;;;;;;;;5041160;28;29572;-74
2023/12/20 09:15:34;;;;;;;;;3.00;3.00;;;;;;;;5049210;28;28456;-70
2023/12/20 09:17:59;;;;;;;;;2.00;2.00;;;;;;;;5042286;28;28708;-70
2023/12/20 09:20:24;;;;;;;;;4.00;3.33;;;;;;;;5047790;28;28949;-71
2023/12/20 09:22:50;;;;;;;;;3.67;2.33;;;;;;;;5034335;28;28494;-72
2023/12/20 09:25:17;;;;;;;;;2.67;2.00;;;;;;;;5046311;28;28504;-72
2023/12/20 09:27:42;;;;;;;;;4.00;3.00;;;;;;;;5062865;28;28460;-71
2023/12/20 09:30:08;;;;;;;;;6.00;3.00;;;;;;;;5032383;28;29223;-73
2023/12/20 09:32:33;;;;;;;;;3.00;3.00;;;;;;;;5018257;28;30556;-72
2023/12/20 09:34:58;;;;;;;;;2.00;2.00;;;;;;;;5035335;28;28492;-77
2023/12/20 09:37:27;;;;;;;;;5.33;1.33;;;;;;;;5015525;28;28318;-74
2023/12/20 09:39:53;;;;;;;;;6.00;3.67;;;;;;;;5028938;28;28584;-72
2023/12/20 09:42:23;;;;;;;;;3.00;3.00;;;;;;;;5026086;28;28493;-76
2023/12/20 09:44:48;;;;;;;;;3.00;3.00;;;;;;;;5040859;28;28419;-76
2023/12/20 09:47:15;;;;;;;;;4.00;2.33;;;;;;;;5016168;28;28504;-77
2023/12/20 09:49:42;;;;;;;;;3.33;2.33;;;;;;;;5028819;28;28863;-76
2023/12/20 09:52:09;;;;;;;;;4.00;1.33;;;;;;;;5030002;28;29334;-75
2023/12/20 09:54:34;;;;;;;;;3.67;2.67;;;;;;;;5033362;28;28552;-76
2023/12/20 09:57:00;;;;;;;;;8.33;3.67;;;;;;;;5027296;28;28772;-80
2023/12/20 09:59:25;;;;;;;;;5.00;3.00;;;;;;;;5004461;28;28925;-79
2023/12/20 10:01:51;;;;;;;;;3.00;2.67;;;;;;;;5031529;28;30887;-75
2023/12/20 10:04:16;;;;;;;;;6.67;3.00;;;;;;;;5028395;28;28902;-79
2023/12/20 10:06:42;;;;;;;;;2.33;2.33;;;;;;;;5033534;28;28495;-74
2023/12/20 10:09:08;;;;;;;;;4.00;3.00;;;;;;;;5034499;28;28772;-77
2023/12/20 10:11:35;;;;;;;;;2.00;2.00;;;;;;;;5029752;28;30983;-77
2023/12/20 10:14:03;;;;;;;;;6.00;2.33;;;;;;;;5046576;28;28011;-74
2023/12/20 10:16:29;;;;;;;;;1.00;1.00;;;;;;;;5031426;28;28427;-73
2023/12/20 10:18:54;;;;;;;;;3.67;2.67;;;;;;;;5037720;28;28612;-72
2023/12/20 10:21:20;;;;;;;;;5.00;2.00;;;;;;;;5030115;28;28886;-73
2023/12/20 10:23:46;;;;;;;;;4.33;3.00;;;;;;;;5029082;28;28548;-73
2023/12/20 10:26:21;;;;;;;;;5.33;2.67;;;;;;;;5029215;28;28679;-71
2023/12/20 10:28:49;;;;;;;;;3.67;2.67;;;;;;;;5010587;28;30090;-72
2023/12/20 10:31:35;;;;;;;;;7.00;2.00;;;;;;;;5036252;28;29018;-74
2023/12/20 10:34:01;;;;;;;;;1.67;1.67;;;;;;;;5021923;28;28446;-72
2023/12/20 10:36:27;;;;;;;;;5.67;3.00;;;;;;;;5046831;28;28437;-73
2023/12/20 10:38:53;;;;;;;;;3.33;3.00;;;;;;;;5040640;28;28819;-71
2023/12/20 10:41:24;;;;;;;;;7.00;4.00;;;;;;;;5047308;28;28484;-71
2023/12/20 10:43:50;;;;;;;;;5.67;4.00;;;;;;;;5046676;28;28694;-72
2023/12/20 10:46:16;;;;;;;;;3.67;2.67;;;;;;;;5047762;28;28449;-70
2023/12/20 10:48:45;;;;;;;;;5.67;3.33;;;;;;;;5047089;28;28570;-74
2023/12/20 10:51:17;;;;;;;;;6.67;2.33;;;;;;;;5035367;28;28496;-71
2023/12/20 10:53:43;;;;;;;;;5.67;3.00;;;;;;;;5047774;28;28936;-72
2023/12/20 10:56:12;;;;;;;;;5.00;4.00;;;;;;;;5046149;28;28778;-71
2023/12/20 10:58:41;;;;;;;;;17.00;6.00;;;;;;;;5047212;28;28490;-73
2023/12/20 11:01:07;;;;;;;;;14.33;9.67;;;;;;;;5030729;28;29747;-71
2023/12/20 11:03:34;;;;;;;;;21.33;16.33;;;;;;;;5048955;28;28543;-73
2023/12/20 11:06:19;;;;;;;;;17.33;15.67;;;;;;;;5047092;28;28398;-72
2023/12/20 11:08:50;;;;;;;;;15.67;14.00;;;;;;;;5045263;28;28720;-71
2023/12/20 11:11:15;;;;;;;;;28.67;20.33;;;;;;;;5046956;28;28511;-74
2023/12/20 11:13:44;;;;;;;;;10.33;7.33;;;;;;;;5048363;28;28750;-71
2023/12/20 11:16:10;;;;;;;;;9.67;7.00;;;;;;;;5053142;28;28642;-73
2023/12/20 11:18:35;;;;;;;;;22.33;16.67;;;;;;;;5037102;28;29336;-73
2023/12/20 11:21:03;;;;;;;;;14.00;10.67;;;;;;;;5046589;28;30013;-74
2023/12/20 11:23:29;;;;;;;;;11.00;6.33;;;;;;;;5040250;28;28407;-72
2023/12/20 11:25:57;;;;;;;;;16.67;11.33;;;;;;;;5046007;28;28569;-72
2023/12/20 11:28:25;;;;;;;;;19.67;17.67;;;;;;;;5043620;28;28956;-72
2023/12/20 11:30:55;;;;;;;;;11.67;10.00;;;;;;;;5043001;28;30818;-72
2023/12/20 11:33:22;;;;;;;;;8.33;8.00;;;;;;;;5025877;28;30027;-72
2023/12/20 11:35:48;;;;;;;;;70.75;56.75;;;;;;;;5040378;28;28945;-71
2023/12/20 11:38:14;;;;;;;;;44.33;36.00;;;;;;;;5046145;28;29237;-71
2023/12/20 11:40:40;;;;;;;;;16.33;12.33;;;;;;;;5038561;28;29345;-72
2023/12/20 11:43:06;;;;;;;;;18.00;15.67;;;;;;;;5017188;28;29234;-73
2023/12/20 11:45:32;;;;;;;;;5.67;5.67;;;;;;;;5045792;28;28544;-72
2023/12/20 11:47:57;;;;;;;;;21.00;15.67;;;;;;;;5044864;28;28835;-72
2023/12/20 11:50:23;;;;;;;;;8.33;6.67;;;;;;;;5029260;28;29945;-72
2023/12/20 11:52:49;;;;;;;;;15.67;13.33;;;;;;;;5046680;28;28838;-75
2023/12/20 11:55:14;;;;;;;;;57.00;41.67;;;;;;;;5047244;28;28705;-74
2023/12/20 11:57:40;;;;;;;;;8.33;8.00;;;;;;;;5046777;28;28509;-76
2023/12/20 12:00:06;;;;;;;;;15.67;11.33;;;;;;;;5028746;28;30846;-77
2023/12/20 12:02:31;;;;;;;;;8.00;4.33;;;;;;;;5046259;28;28849;-76
2023/12/20 12:04:58;;;;;;;;;8.00;6.33;;;;;;;;5044212;28;29015;-75
2023/12/20 12:07:24;;;;;;;;;6.33;3.67;;;;;;;;5043274;28;28551;-75
2023/12/20 12:09:49;;;;;;;;;21.67;17.33;;;;;;;;5046606;28;28509;-74
2023/12/20 12:12:14;;;;;;;;;23.33;20.67;;;;;;;;5038658;28;28785;-80
2023/12/20 12:14:43;;;;;;;;;14.33;10.67;;;;;;;;5043736;28;29083;-75
2023/12/20 12:17:12;;;;;;;;;13.33;8.00;;;;;;;;5046236;28;28794;-73
2023/12/20 12:19:38;;;;;;;;;15.00;10.33;;;;;;;;5027281;28;30534;-75
2023/12/20 12:22:12;;;;;;;;;12.00;5.67;;;;;;;;5048248;28;28939;-74
2023/12/20 12:24:41;;;;;;;;;11.00;9.00;;;;;;;;5043748;28;28630;-74
2023/12/20 12:27:07;;;;;;;;;15.33;7.00;;;;;;;;5019725;28;28556;-75
2023/12/20 12:29:33;;;;;;;;;8.00;6.00;;;;;;;;5049203;28;28485;-76
2023/12/20 12:31:58;;;;;;;;;4.33;3.67;;;;;;;;5026266;28;30097;-74
2023/12/20 12:34:24;;;;;;;;;9.33;9.33;;;;;;;;5051447;28;28579;-72
2023/12/20 12:36:49;;;;;;;;;8.00;7.33;;;;;;;;5049621;28;28520;-73
2023/12/20 12:39:18;;;;;;;;;2.33;1.67;;;;;;;;5032371;28;29958;-74
2023/12/20 12:41:43;;;;;;;;;7.00;5.00;;;;;;;;5039130;28;28489;-70
2023/12/20 12:44:08;;;;;;;;;7.67;7.67;;;;;;;;5020469;28;28497;-71
2023/12/20 12:46:33;;;;;;;;;7.33;7.33;;;;;;;;5045802;28;28717;-69
2023/12/20 12:48:59;;;;;;;;;4.00;3.33;;;;;;;;5050973;28;28801;-72
2023/12/20 12:51:27;;;;;;;;;10.00;4.67;;;;;;;;5033036;28;28559;-71
2023/12/20 12:53:53;;;;;;;;;5.67;5.00;;;;;;;;5031644;28;28423;-73
2023/12/20 12:56:18;;;;;;;;;5.00;2.33;;;;;;;;5050169;28;28646;-71
2023/12/20 12:58:44;;;;;;;;;4.00;4.00;;;;;;;;5049790;28;29107;-73
2023/12/20 13:01:09;;;;;;;;;8.33;5.00;;;;;;;;5050352;28;28838;-71
2023/12/20 13:03:35;;;;;;;;;8.33;5.33;;;;;;;;5050807;28;28770;-74
2023/12/20 13:06:00;;;;;;;;;7.33;2.67;;;;;;;;5031349;28;28440;-74
2023/12/20 13:08:26;;;;;;;;;6.00;5.33;;;;;;;;5056139;28;28475;-73
2023/12/20 13:10:51;;;;;;;;;6.67;3.67;;;;;;;;5051418;28;28770;-76
2023/12/20 13:13:17;;;;;;;;;8.67;3.00;;;;;;;;5043313;28;28574;-76
2023/12/20 13:15:42;;;;;;;;;4.00;4.00;;;;;;;;5050043;28;28424;-76
2023/12/20 13:18:10;;;;;;;;;5.67;3.33;;;;;;;;5058636;28;29662;-75
2023/12/20 13:20:36;;;;;;;;;5.00;5.00;;;;;;;;5029697;28;29553;-75
2023/12/20 13:23:14;;;;;;;;;2.33;2.33;;;;;;;;5052572;28;28801;-75
2023/12/20 13:25:39;;;;;;;;;3.00;3.00;;;;;;;;5027262;28;30281;-75
2023/12/20 13:28:08;;;;;;;;;6.33;6.33;;;;;;;;5035744;28;29419;-74
2023/12/20 13:30:34;;;;;;;;;5.00;4.00;;;;;;;;5044968;28;28798;-76
2023/12/20 13:33:02;;;;;;;;;3.33;2.00;;;;;;;;5007012;28;28881;-75
2023/12/20 13:35:28;;;;;;;;;4.33;2.00;;;;;;;;5034845;28;28508;-76
2023/12/20 13:37:53;;;;;;;;;2.67;2.33;;;;;;;;5007878;28;30024;-72
2023/12/20 13:40:18;;;;;;;;;7.33;3.00;;;;;;;;5022747;28;28849;-71
2023/12/20 13:42:45;;;;;;;;;5.00;2.00;;;;;;;;5027643;28;28926;-73
2023/12/20 13:45:10;;;;;;;;;2.00;2.00;;;;;;;;5027494;28;28867;-72
2023/12/20 13:47:36;;;;;;;;;5.33;3.00;;;;;;;;5010674;28;28594;-71
2023/12/20 13:50:02;;;;;;;;;6.33;1.00;;;;;;;;5029044;28;28370;-70
2023/12/20 13:52:27;;;;;;;;;5.33;2.67;;;;;;;;5007930;28;28847;-71
2023/12/20 13:54:52;;;;;;;;;5.33;2.33;;;;;;;;5012686;28;30084;-72
2023/12/20 13:57:18;;;;;;;;;6.00;3.67;;;;;;;;5030444;28;28213;-73
2023/12/20 13:59:43;;;;;;;;;4.00;2.00;;;;;;;;5011644;28;29001;-73
2023/12/20 14:02:09;;;;;;;;;7.33;6.00;;;;;;;;5020583;28;28810;-75
2023/12/20 14:04:34;;;;;;;;;3.00;2.67;;;;;;;;5007108;28;28784;-73
2023/12/20 14:07:00;;;;;;;;;8.00;5.33;;;;;;;;5005968;28;29952;-74
2023/12/20 14:09:25;;;;;;;;;3.33;0.67;;;;;;;;5018002;28;29071;-73
2023/12/20 14:11:54;;;;;;;;;1.33;0.67;;;;;;;;4990938;28;28761;-73
2023/12/20 14:14:20;;;;;;;;;6.67;3.33;;;;;;;;5008899;28;28968;-74
2023/12/20 14:16:45;;;;;;;;;5.00;3.67;;;;;;;;4991349;28;29937;-74
2023/12/20 14:19:11;;;;;;;;;3.33;1.67;;;;;;;;5007748;28;28679;-72
2023/12/20 14:21:36;;;;;;;;;3.33;2.67;;;;;;;;5007144;28;28755;-73
2023/12/20 14:24:03;;;;;;;;;7.00;4.00;;;;;;;;5009197;28;28446;-74
2023/12/20 14:26:29;;;;;;;;;6.00;3.67;;;;;;;;5009045;28;28522;-73
2023/12/20 14:28:54;;;;;;;;;3.00;3.00;;;;;;;;5008848;28;28555;-72
2023/12/20 14:31:20;;;;;;;;;2.67;2.67;;;;;;;;5009303;28;28470;-71
2023/12/20 14:33:46;;;;;;;;;4.00;2.33;;;;;;;;5008557;28;28537;-74
2023/12/20 14:36:14;;;;;;;;;7.67;4.33;;;;;;;;4991231;28;28533;-73